Time;durP1;ratioP1;P1;durP2;ratioP2;P2;SDS_P1;SDS_P2;PMS_P1;PMS_P2;Temp;Humidity;BMP_temperature;BMP_pressure;BME280_temperature;BME280_humidity;BME280_pressure;Samples;Min_cycle;Max_cycle;Signal;HPM_P1;HPM_P2
2023/01/15 00:01:23;;;;;;;4.23;1.20;;;10.60;20.60;;;;;;6031895;23;20444;-71
2023/01/15 00:03:51;;;;;;;4.30;1.93;;;10.60;20.50;;;;;;6032465;23;20439;-70
2023/01/15 00:06:18;;;;;;;4.20;1.30;;;10.60;20.40;;;;;;6032245;23;20420;-70
2023/01/15 00:08:46;;;;;;;3.90;1.03;;;10.60;20.00;;;;;;6032777;23;20420;-71
2023/01/15 00:11:13;;;;;;;5.87;0.90;;;10.60;20.00;;;;;;6033121;23;20427;-70
2023/01/15 00:13:40;;;;;;;3.70;1.20;;;10.60;19.80;;;;;;6032677;23;20448;-71
2023/01/15 00:16:09;;;;;;;3.97;0.97;;;10.60;20.00;;;;;;6031308;23;20431;-71
2023/01/15 00:18:36;;;;;;;3.80;0.80;;;10.60;19.70;;;;;;6032997;23;20431;-71
2023/01/15 00:21:07;;;;;;;3.67;0.80;;;10.60;19.80;;;;;;6032096;23;20444;-71
2023/01/15 00:29:05;;;;;;;3.63;0.90;;;10.70;18.30;;;;;;6032588;23;20400;-70
2023/01/15 00:31:34;;;;;;;3.53;0.70;;;10.70;18.50;;;;;;6032602;23;20472;-71
2023/01/15 00:34:00;;;;;;;5.93;1.07;;;10.70;18.50;;;;;;6034968;23;20428;-70
2023/01/15 00:36:28;;;;;;;3.20;0.50;;;10.70;18.30;;;;;;6033797;23;20435;-70
2023/01/15 00:38:55;;;;;;;3.47;0.80;;;10.70;17.50;;;;;;6033880;23;20431;-70
2023/01/15 00:41:22;;;;;;;4.20;0.93;;;10.80;17.10;;;;;;6034216;23;20462;-70
2023/01/15 00:43:49;;;;;;;3.70;0.77;;;10.80;16.90;;;;;;6035230;23;20447;-71
2023/01/15 00:46:16;;;;;;;3.80;0.90;;;10.80;16.60;;;;;;6033371;23;20914;-71
2023/01/15 00:48:42;;;;;;;3.93;1.10;;;10.80;16.50;;;;;;6034378;23;20420;-71
2023/01/15 00:51:09;;;;;;;3.30;0.70;;;10.90;16.20;;;;;;6034675;23;20425;-70
2023/01/15 00:53:37;;;;;;;4.00;0.73;;;10.90;15.60;;;;;;6033812;23;20439;-71
2023/01/15 00:56:04;;;;;;;3.30;0.50;;;10.90;15.30;;;;;;6032593;23;20424;-71
2023/01/15 00:58:31;;;;;;;5.23;1.10;;;11.00;15.10;;;;;;6033174;23;20431;-71
2023/01/15 01:00:59;;;;;;;4.57;1.47;;;11.00;15.20;;;;;;6033688;23;20964;-70
2023/01/15 01:03:27;;;;;;;3.50;0.60;;;10.90;15.20;;;;;;6033732;23;21036;-71
2023/01/15 01:05:53;;;;;;;3.80;1.30;;;10.90;15.20;;;;;;6033782;23;20423;-70
2023/01/15 01:08:20;;;;;;;4.70;1.20;;;11.00;14.70;;;;;;6033925;23;20420;-69
2023/01/15 01:10:48;;;;;;;3.87;1.00;;;11.00;14.90;;;;;;6033035;23;20419;-70
2023/01/15 01:13:15;;;;;;;3.90;1.10;;;11.00;14.60;;;;;;6034331;23;20452;-70
2023/01/15 01:15:42;;;;;;;4.03;0.80;;;11.10;15.00;;;;;;6033614;23;20934;-70
2023/01/15 01:18:08;;;;;;;4.07;1.33;;;11.10;14.70;;;;;;6034470;23;20420;-71
2023/01/15 01:20:38;;;;;;;3.60;0.87;;;11.10;15.10;;;;;;6032535;23;21000;-70
2023/01/15 01:23:04;;;;;;;3.83;0.90;;;11.10;15.30;;;;;;6034091;23;20446;-71
2023/01/15 01:25:31;;;;;;;3.53;0.73;;;11.10;15.10;;;;;;6033210;23;20428;-70
2023/01/15 01:27:59;;;;;;;5.00;0.90;;;11.10;15.20;;;;;;6042737;23;20424;-70
2023/01/15 01:30:26;;;;;;;3.40;0.60;;;11.20;15.30;;;;;;6033602;23;20443;-70
2023/01/15 01:32:52;;;;;;;3.70;0.60;;;11.20;15.00;;;;;;6034674;23;20447;-69
2023/01/15 01:35:19;;;;;;;4.00;0.60;;;11.20;15.30;;;;;;6034449;23;20734;-71
2023/01/15 01:37:49;;;;;;;3.43;0.80;;;11.20;15.40;;;;;;6033848;23;20428;-70
2023/01/15 01:40:17;;;;;;;3.50;0.80;;;11.20;15.80;;;;;;6033545;23;20956;-70
2023/01/15 01:42:44;;;;;;;4.60;0.80;;;11.30;16.30;;;;;;6033294;23;20750;-70
2023/01/15 01:45:23;;;;;;;5.80;1.30;;;11.30;16.10;;;;;;6034189;23;20420;-70
2023/01/15 01:47:51;;;;;;;9.80;0.90;;;11.30;16.20;;;;;;6033789;23;20871;-70
2023/01/15 01:50:18;;;;;;;3.60;0.80;;;11.30;16.10;;;;;;6032987;23;20424;-71
2023/01/15 01:52:49;;;;;;;3.50;0.70;;;11.30;16.30;;;;;;6043129;23;20436;-71
2023/01/15 01:55:20;;;;;;;3.70;0.80;;;11.40;16.50;;;;;;6034298;23;20405;-70
2023/01/15 01:57:50;;;;;;;3.97;0.73;;;11.40;16.30;;;;;;6031330;23;20416;-70
2023/01/15 02:00:20;;;;;;;3.50;0.70;;;11.30;16.50;;;;;;6032836;23;20474;-69
2023/01/15 02:02:49;;;;;;;3.60;0.70;;;11.40;17.10;;;;;;6033936;23;21083;-70
2023/01/15 02:05:23;;;;;;;4.67;0.93;;;11.40;17.10;;;;;;6034037;23;20508;-70
2023/01/15 02:07:50;;;;;;;3.63;0.90;;;11.40;17.30;;;;;;6033637;23;20407;-70
2023/01/15 02:10:17;;;;;;;3.77;0.70;;;11.30;17.70;;;;;;6033331;23;20435;-70
2023/01/15 02:12:49;;;;;;;3.30;0.60;;;11.30;17.60;;;;;;6032677;23;20949;-69
2023/01/15 02:15:25;;;;;;;3.87;0.90;;;11.40;18.00;;;;;;6033715;23;20464;-70
2023/01/15 02:18:00;;;;;;;3.63;0.83;;;11.40;18.50;;;;;;6033588;23;20407;-70
2023/01/15 02:20:32;;;;;;;3.50;0.73;;;11.30;18.90;;;;;;6033650;23;20460;-70
2023/01/15 02:23:13;;;;;;;3.60;0.90;;;11.30;18.70;;;;;;6033228;23;20447;-70
2023/01/15 02:25:57;;;;;;;3.40;0.70;;;11.30;18.80;;;;;;6034486;23;20710;-70
2023/01/15 02:28:27;;;;;;;3.60;0.90;;;11.30;19.10;;;;;;6034056;23;20416;-70
2023/01/15 02:31:01;;;;;;;3.30;0.53;;;11.20;18.90;;;;;;6031677;23;20451;-70
2023/01/15 02:33:34;;;;;;;3.80;1.07;;;11.20;19.10;;;;;;6032617;23;20436;-70
2023/01/15 02:36:05;;;;;;;3.40;0.50;;;11.20;19.00;;;;;;6031750;23;20424;-70
2023/01/15 02:38:35;;;;;;;4.07;1.20;;;11.20;19.10;;;;;;6034192;23;20472;-70
2023/01/15 02:41:05;;;;;;;4.30;0.63;;;11.20;19.10;;;;;;6033263;23;20977;-70
2023/01/15 02:43:36;;;;;;;3.60;0.70;;;11.10;19.00;;;;;;6032607;23;20444;-70
2023/01/15 02:46:05;;;;;;;3.37;0.60;;;11.20;19.00;;;;;;6030763;23;20754;-69
2023/01/15 02:48:36;;;;;;;3.70;0.60;;;11.20;19.00;;;;;;6033854;23;20761;-70
2023/01/15 02:51:08;;;;;;;4.70;0.80;;;11.20;18.80;;;;;;6033866;23;20401;-70
2023/01/15 02:53:37;;;;;;;3.43;0.70;;;11.20;18.80;;;;;;6032679;23;20440;-70
2023/01/15 02:56:09;;;;;;;3.87;0.70;;;11.20;18.80;;;;;;6032987;23;20427;-70
2023/01/15 02:58:39;;;;;;;3.57;0.80;;;11.20;18.80;;;;;;6034274;23;20447;-70
2023/01/15 03:01:11;;;;;;;3.40;0.50;;;11.20;18.90;;;;;;6032338;23;20961;-69
2023/01/15 03:03:45;;;;;;;3.20;0.47;;;11.20;19.20;;;;;;6027891;23;20496;-70
2023/01/15 03:06:17;;;;;;;3.40;0.50;;;11.30;19.10;;;;;;6031568;23;20757;-70
2023/01/15 03:08:44;;;;;;;3.90;0.80;;;11.20;18.80;;;;;;6032987;23;20405;-70
2023/01/15 03:11:14;;;;;;;3.80;0.60;;;11.20;18.80;;;;;;6032465;23;20412;-70
2023/01/15 03:13:47;;;;;;;4.57;0.80;;;11.20;19.00;;;;;;6032877;23;20827;-70
2023/01/15 03:16:37;;;;;;;4.30;0.60;;;11.20;19.40;;;;;;6039697;23;20797;-68
2023/01/15 03:19:13;;;;;;;4.57;0.87;;;11.20;19.10;;;;;;6060559;23;20408;-68
2023/01/15 03:21:47;;;;;;;4.03;0.50;;;11.20;19.00;;;;;;6060959;23;20427;-68
2023/01/15 03:24:18;;;;;;;3.40;0.60;;;11.20;19.30;;;;;;6061811;23;20414;-68
2023/01/15 03:26:45;;;;;;;3.40;0.70;;;11.20;19.10;;;;;;6043405;23;20444;-68
2023/01/15 03:29:14;;;;;;;3.40;0.60;;;11.20;19.20;;;;;;6032985;23;20427;-68
2023/01/15 03:31:41;;;;;;;3.70;0.60;;;11.20;19.30;;;;;;6031380;23;20436;-68
2023/01/15 03:34:08;;;;;;;4.63;0.70;;;11.20;19.30;;;;;;6032984;23;20424;-68
2023/01/15 03:36:35;;;;;;;3.60;0.60;;;11.20;19.40;;;;;;6032887;23;20446;-67
2023/01/15 03:39:02;;;;;;;5.70;0.70;;;11.20;19.70;;;;;;6032357;23;20678;-69
2023/01/15 03:41:39;;;;;;;3.73;0.60;;;11.20;19.80;;;;;;6032275;23;20451;-69
2023/01/15 03:44:16;;;;;;;3.80;0.90;;;11.10;19.90;;;;;;6032951;23;20407;-68
2023/01/15 03:46:54;;;;;;;3.87;0.80;;;11.20;20.00;;;;;;6033636;23;20536;-69
2023/01/15 03:49:30;;;;;;;3.60;0.60;;;11.20;20.40;;;;;;6032024;23;20895;-68
2023/01/15 03:52:02;;;;;;;3.73;0.70;;;11.10;20.40;;;;;;6031751;23;20423;-69
2023/01/15 03:54:39;;;;;;;3.40;0.67;;;11.10;20.50;;;;;;6032563;23;20404;-68
2023/01/15 03:57:11;;;;;;;3.43;0.60;;;11.20;20.80;;;;;;6033247;23;20444;-68
2023/01/15 03:59:46;;;;;;;3.60;0.80;;;11.20;20.60;;;;;;6033147;23;20404;-69
2023/01/15 04:02:16;;;;;;;3.60;0.80;;;11.20;21.20;;;;;;6030909;23;20447;-68
2023/01/15 04:04:45;;;;;;;4.23;0.80;;;11.20;20.80;;;;;;6031994;23;20780;-69
2023/01/15 04:07:12;;;;;;;3.30;0.70;;;11.20;20.70;;;;;;6032944;23;20448;-68
2023/01/15 04:09:40;;;;;;;3.70;0.70;;;11.20;20.50;;;;;;6032612;23;20420;-69
2023/01/15 04:12:07;;;;;;;3.23;0.50;;;11.20;20.70;;;;;;6031437;23;20423;-68
2023/01/15 04:14:35;;;;;;;3.50;0.67;;;11.20;20.90;;;;;;6033281;23;20801;-68
2023/01/15 04:17:03;;;;;;;3.60;0.70;;;11.20;21.10;;;;;;6032955;23;20447;-69
2023/01/15 04:19:29;;;;;;;3.43;0.63;;;11.20;21.40;;;;;;6031749;23;20424;-69
2023/01/15 04:21:56;;;;;;;3.40;0.70;;;11.10;21.60;;;;;;6032362;23;20444;-68
2023/01/15 04:24:23;;;;;;;3.67;0.70;;;11.20;21.70;;;;;;6032920;23;20425;-69
2023/01/15 04:26:50;;;;;;;3.43;0.60;;;11.20;21.80;;;;;;6032721;23;20440;-67
2023/01/15 04:29:16;;;;;;;3.50;0.60;;;11.20;22.00;;;;;;6033016;23;20420;-68
2023/01/15 04:31:43;;;;;;;3.50;0.60;;;11.10;22.20;;;;;;6029338;23;20447;-68
2023/01/15 04:34:11;;;;;;;3.90;0.90;;;11.10;23.00;;;;;;6030967;23;20420;-68
2023/01/15 04:36:38;;;;;;;3.40;0.60;;;11.10;22.60;;;;;;6030063;23;20444;-70
2023/01/15 04:39:05;;;;;;;4.37;0.70;;;11.10;22.80;;;;;;6032380;23;20431;-68
2023/01/15 04:44:16;;;;;;;3.17;0.47;;;11.10;23.30;;;;;;6031826;23;20479;-69
2023/01/15 04:46:45;;;;;;;3.80;0.70;;;11.10;23.30;;;;;;6031427;23;20440;-69
2023/01/15 04:49:16;;;;;;;3.27;0.50;;;11.10;24.20;;;;;;6033258;23;20431;-69
2023/01/15 04:51:43;;;;;;;3.40;0.60;;;11.10;23.80;;;;;;6032608;23;20871;-69
2023/01/15 04:54:13;;;;;;;3.40;0.60;;;11.10;23.80;;;;;;6031711;23;20433;-68
2023/01/15 04:56:42;;;;;;;3.30;0.40;;;11.10;23.90;;;;;;6032237;23;20508;-70
2023/01/15 04:59:10;;;;;;;3.50;0.53;;;11.10;24.20;;;;;;6032664;23;20420;-69
2023/01/15 05:01:37;;;;;;;3.47;0.80;;;11.10;24.30;;;;;;6029701;23;20447;-68
2023/01/15 05:04:04;;;;;;;3.73;0.60;;;11.10;24.50;;;;;;6033133;23;20443;-69
2023/01/15 05:06:32;;;;;;;3.23;0.47;;;11.10;24.70;;;;;;6040041;23;20436;-69
2023/01/15 05:08:59;;;;;;;3.10;0.40;;;11.00;24.90;;;;;;6031441;23;20420;-68
2023/01/15 05:11:26;;;;;;;3.10;0.40;;;11.00;25.10;;;;;;6031155;23;20452;-69
2023/01/15 05:13:53;;;;;;;3.30;0.60;;;11.00;25.30;;;;;;6040594;23;20416;-69
2023/01/15 05:16:23;;;;;;;3.33;0.50;;;11.00;25.50;;;;;;6031860;23;20452;-68
2023/01/15 05:18:51;;;;;;;3.30;0.57;;;11.00;25.60;;;;;;6032510;23;20420;-69
2023/01/15 05:21:20;;;;;;;4.73;0.57;;;11.00;25.70;;;;;;6033131;23;20446;-68
2023/01/15 05:23:49;;;;;;;3.10;0.40;;;11.00;25.60;;;;;;6034489;23;20426;-69
2023/01/15 05:26:16;;;;;;;3.20;0.50;;;11.00;25.70;;;;;;6033383;23;20782;-69
2023/01/15 05:28:43;;;;;;;5.53;0.60;;;11.00;25.90;;;;;;6032090;23;20420;-70
2023/01/15 05:31:11;;;;;;;3.53;0.60;;;11.00;25.90;;;;;;6030843;23;20443;-69
2023/01/15 05:33:39;;;;;;;3.50;0.70;;;11.00;26.30;;;;;;6034723;23;20431;-68
2023/01/15 05:36:09;;;;;;;3.20;0.50;;;11.00;26.30;;;;;;6034550;23;20444;-68
2023/01/15 05:38:36;;;;;;;3.67;0.60;;;11.00;26.50;;;;;;6032604;23;20430;-68
2023/01/15 05:41:47;;;;;;;3.50;0.57;;;11.00;26.70;;;;;;6032888;23;20755;-69
2023/01/15 05:43:54;;;;;;;3.33;0.60;;;11.00;26.80;;;;;;6032579;23;20846;-69
2023/01/15 05:46:21;;;;;;;3.10;0.50;;;11.00;27.00;;;;;;6034541;23;20444;-69
2023/01/15 05:48:48;;;;;;;3.10;0.50;;;11.10;27.10;;;;;;6034262;23;20420;-69
2023/01/15 05:51:16;;;;;;;3.33;0.47;;;11.10;27.30;;;;;;6033756;23;20426;-70
2023/01/15 05:53:43;;;;;;;3.87;0.60;;;11.10;27.30;;;;;;6034093;23;20911;-69
2023/01/15 05:56:11;;;;;;;3.97;0.70;;;11.20;27.20;;;;;;6034307;23;20440;-68
2023/01/15 05:58:38;;;;;;;3.13;0.47;;;11.20;27.10;;;;;;6032491;23;20754;-69
2023/01/15 06:01:09;;;;;;;3.60;0.50;;;11.20;27.00;;;;;;6032200;23;20447;-69
2023/01/15 06:03:36;;;;;;;3.10;0.40;;;11.20;27.00;;;;;;6033652;23;20921;-68
2023/01/15 06:06:03;;;;;;;3.20;0.50;;;11.20;27.20;;;;;;6034484;23;20970;-70
2023/01/15 06:08:30;;;;;;;3.40;0.50;;;11.30;27.10;;;;;;6031021;23;20416;-69
2023/01/15 06:10:57;;;;;;;3.10;0.50;;;11.30;27.00;;;;;;6033029;23;20929;-68
2023/01/15 06:13:25;;;;;;;3.10;0.40;;;11.40;26.90;;;;;;6033253;23;20419;-69
2023/01/15 06:15:51;;;;;;;3.30;0.50;;;11.40;27.00;;;;;;6033067;23;20448;-69
2023/01/15 06:18:18;;;;;;;3.50;0.70;;;11.40;26.90;;;;;;6034076;23;20408;-69
2023/01/15 06:20:45;;;;;;;3.20;0.50;;;11.40;27.00;;;;;;6032493;23;20427;-68
2023/01/15 06:23:12;;;;;;;3.20;0.50;;;11.50;27.10;;;;;;6033846;23;20474;-68
2023/01/15 06:25:38;;;;;;;3.10;0.40;;;11.50;27.20;;;;;;6033068;23;20444;-68
2023/01/15 06:28:06;;;;;;;3.50;0.50;;;11.50;27.10;;;;;;6033542;23;20521;-68
2023/01/15 06:30:35;;;;;;;3.07;0.40;;;11.50;27.00;;;;;;6032209;23;20423;-68
2023/01/15 06:33:02;;;;;;;3.17;0.40;;;11.50;26.70;;;;;;6033823;23;20421;-68
2023/01/15 06:35:29;;;;;;;3.20;0.40;;;11.50;26.60;;;;;;6033491;23;20420;-69
2023/01/15 06:37:55;;;;;;;3.20;0.40;;;11.50;26.40;;;;;;6042266;23;20436;-68
2023/01/15 06:40:22;;;;;;;3.40;0.50;;;11.50;26.20;;;;;;6033131;23;20435;-69
2023/01/15 06:48:23;;;;;;;3.10;0.40;;;11.50;26.40;;;;;;6032918;23;20400;-69
2023/01/15 06:50:50;;;;;;;3.30;0.50;;;11.50;26.50;;;;;;6032615;23;20977;-68
2023/01/15 06:53:17;;;;;;;3.40;0.50;;;11.50;26.70;;;;;;6032697;23;20416;-68
2023/01/15 06:55:43;;;;;;;3.30;0.50;;;11.50;27.00;;;;;;6031387;23;20450;-68
2023/01/15 06:58:10;;;;;;;3.47;0.70;;;11.50;27.30;;;;;;6032648;23;20431;-69
2023/01/15 07:00:41;;;;;;;3.80;0.70;;;11.50;27.50;;;;;;6032083;23;20436;-68
2023/01/15 07:03:08;;;;;;;3.60;0.50;;;11.50;27.60;;;;;;6033545;23;20431;-68
2023/01/15 07:05:38;;;;;;;4.33;0.50;;;11.50;27.30;;;;;;6031251;23;20678;-68
2023/01/15 07:08:05;;;;;;;3.30;0.60;;;11.50;27.80;;;;;;6033097;23;20424;-69
2023/01/15 07:10:33;;;;;;;3.20;0.40;;;11.40;27.60;;;;;;6032176;23;20427;-69
2023/01/15 07:13:00;;;;;;;3.30;0.50;;;11.40;28.60;;;;;;6033034;23;20423;-68
2023/01/15 07:15:27;;;;;;;3.43;0.50;;;11.40;27.80;;;;;;6032979;23;20447;-68
2023/01/15 07:17:56;;;;;;;3.60;0.43;;;11.40;27.90;;;;;;6032262;23;20427;-69
2023/01/15 07:20:23;;;;;;;4.30;0.80;;;11.40;27.80;;;;;;6033392;23;20425;-68
2023/01/15 07:22:50;;;;;;;4.90;0.90;;;11.30;28.00;;;;;;6030682;23;20448;-68
2023/01/15 07:25:17;;;;;;;3.20;0.50;;;11.30;27.80;;;;;;6033104;23;20420;-69
2023/01/15 07:27:46;;;;;;;3.10;0.57;;;11.30;27.80;;;;;;6032110;23;20431;-69
2023/01/15 07:30:13;;;;;;;5.67;0.57;;;11.30;27.90;;;;;;6033833;23;20435;-69
2023/01/15 07:32:40;;;;;;;3.60;0.60;;;11.30;28.20;;;;;;6032410;23;20416;-70
2023/01/15 07:35:09;;;;;;;3.80;0.67;;;11.30;28.40;;;;;;6031965;23;20420;-69
2023/01/15 07:37:36;;;;;;;3.53;0.67;;;11.30;29.00;;;;;;6032026;23;20455;-68
2023/01/15 07:40:03;;;;;;;4.00;0.53;;;11.20;29.50;;;;;;6031718;23;20476;-69
2023/01/15 07:50:45;;;;;;;3.60;0.70;;;11.10;30.70;;;;;;6032818;23;20395;-70
2023/01/15 07:53:11;;;;;;;3.37;0.60;;;11.10;30.70;;;;;;6032107;23;20424;-69
2023/01/15 07:55:38;;;;;;;3.40;0.60;;;11.10;30.70;;;;;;6030336;23;20950;-69
2023/01/15 07:58:05;;;;;;;3.97;0.67;;;11.20;30.90;;;;;;6031594;23;20420;-68
2023/01/15 08:00:31;;;;;;;3.30;0.57;;;11.20;31.00;;;;;;6032651;23;20440;-68
2023/01/15 08:02:58;;;;;;;3.50;0.77;;;11.10;31.20;;;;;;6030848;23;20447;-69
2023/01/15 08:05:25;;;;;;;3.70;1.03;;;11.10;31.50;;;;;;6032038;23;20508;-69
2023/01/15 08:07:53;;;;;;;3.40;0.50;;;11.10;31.40;;;;;;6031467;23;20446;-69
2023/01/15 08:10:20;;;;;;;3.57;0.70;;;11.10;31.60;;;;;;6032121;23;20953;-71
2023/01/15 08:15:39;;;;;;;3.20;0.67;;;11.10;31.80;;;;;;6039425;23;20997;-69
2023/01/15 08:18:06;;;;;;;3.20;0.57;;;11.10;32.00;;;;;;6028295;23;20416;-70
2023/01/15 08:20:34;;;;;;;5.67;0.80;;;11.10;32.20;;;;;;6029868;23;20423;-69
2023/01/15 08:23:02;;;;;;;3.37;0.67;;;11.10;32.10;;;;;;6031275;23;20444;-71
2023/01/15 08:25:29;;;;;;;4.13;0.70;;;11.00;32.30;;;;;;6031273;23;20428;-71
2023/01/15 08:28:00;;;;;;;3.90;0.73;;;11.00;32.70;;;;;;6032187;23;20426;-70
2023/01/15 08:30:26;;;;;;;4.03;0.70;;;11.10;32.90;;;;;;6031444;23;20423;-71
2023/01/15 08:32:58;;;;;;;4.20;0.77;;;11.10;33.30;;;;;;6030831;23;20423;-71
2023/01/15 08:35:25;;;;;;;3.10;0.40;;;11.00;33.90;;;;;;6031129;23;20405;-70
2023/01/15 08:37:52;;;;;;;3.50;0.40;;;11.00;34.00;;;;;;6031137;23;20911;-71
2023/01/15 08:40:20;;;;;;;5.40;0.63;;;10.90;32.30;;;;;;6031868;23;20420;-71
2023/01/15 08:42:47;;;;;;;8.33;1.00;;;10.80;32.20;;;;;;6031887;23;20471;-71
2023/01/15 08:45:14;;;;;;;4.50;0.97;;;10.70;32.00;;;;;;6032303;23;20736;-70
2023/01/15 08:47:41;;;;;;;6.03;0.70;;;10.60;32.20;;;;;;6032519;23;20420;-70
2023/01/15 08:50:09;;;;;;;3.63;0.60;;;10.50;32.50;;;;;;6030714;23;20942;-70
2023/01/15 08:52:37;;;;;;;3.40;0.60;;;10.40;32.70;;;;;;6033320;23;20510;-70
2023/01/15 08:55:04;;;;;;;3.60;0.80;;;10.30;32.60;;;;;;6031089;23;20427;-70
2023/01/15 08:57:32;;;;;;;4.63;0.60;;;10.20;32.10;;;;;;6034282;23;20447;-71
2023/01/15 08:59:59;;;;;;;3.30;0.40;;;10.10;31.90;;;;;;6033667;23;20506;-71
2023/01/15 09:02:28;;;;;;;3.20;0.40;;;10.00;31.50;;;;;;6033967;23;20844;-71
2023/01/15 09:04:54;;;;;;;3.93;0.40;;;9.90;31.40;;;;;;6032008;23;20479;-71
2023/01/15 09:07:21;;;;;;;3.77;0.60;;;9.80;31.80;;;;;;6033249;23;20462;-71
2023/01/15 09:09:48;;;;;;;3.90;0.70;;;9.70;32.20;;;;;;6034208;23;20958;-71
2023/01/15 09:12:14;;;;;;;3.97;0.77;;;9.50;32.60;;;;;;6031225;23;20424;-70
2023/01/15 09:14:42;;;;;;;4.80;0.77;;;9.40;32.40;;;;;;6030386;23;20431;-69
2023/01/15 09:17:09;;;;;;;3.30;0.50;;;9.40;32.70;;;;;;6028883;23;20942;-71
2023/01/15 09:19:36;;;;;;;8.93;2.70;;;9.30;32.80;;;;;;6030221;23;20427;-66
2023/01/15 09:22:02;;;;;;;7.23;1.20;;;9.20;33.10;;;;;;6030603;23;20792;-66
2023/01/15 09:24:29;;;;;;;3.83;0.50;;;9.10;33.40;;;;;;6033366;23;20444;-64
2023/01/15 09:26:56;;;;;;;3.20;0.50;;;9.00;33.80;;;;;;6031641;23;20822;-64
2023/01/15 09:29:23;;;;;;;3.80;0.70;;;9.00;33.90;;;;;;6032482;23;20421;-64
2023/01/15 09:31:51;;;;;;;3.40;0.50;;;8.90;34.20;;;;;;6027198;23;20443;-67
2023/01/15 09:34:17;;;;;;;3.50;0.70;;;8.90;34.20;;;;;;6033185;23;20420;-67
2023/01/15 09:36:45;;;;;;;3.10;0.40;;;8.90;34.50;;;;;;6033449;23;20440;-68
2023/01/15 09:39:12;;;;;;;3.50;0.50;;;8.90;34.50;;;;;;6035241;23;20471;-68
2023/01/15 09:42:07;;;;;;;3.30;0.43;;;8.90;34.20;;;;;;6033926;23;20424;-67
2023/01/15 09:44:44;;;;;;;3.40;0.70;;;8.80;34.30;;;;;;6033780;23;20432;-68
2023/01/15 09:47:17;;;;;;;3.23;0.50;;;8.80;34.10;;;;;;6040350;23;20446;-68
2023/01/15 09:50:00;;;;;;;3.20;0.40;;;8.80;34.10;;;;;;6032836;23;20485;-68
2023/01/15 09:52:41;;;;;;;3.83;0.80;;;8.80;33.80;;;;;;6033022;23;20439;-68
2023/01/15 09:55:15;;;;;;;3.30;0.60;;;8.80;33.50;;;;;;6030943;23;20411;-65
2023/01/15 09:57:45;;;;;;;5.10;1.40;;;8.70;33.80;;;;;;6034370;23;20411;-66
2023/01/15 10:00:19;;;;;;;4.70;1.40;;;8.70;34.00;;;;;;6034949;23;20476;-67
2023/01/15 10:02:51;;;;;;;3.93;0.73;;;8.70;34.10;;;;;;6034560;23;20428;-67
2023/01/15 10:05:23;;;;;;;3.20;0.50;;;8.70;34.40;;;;;;6034185;23;20464;-69
2023/01/15 10:07:57;;;;;;;3.80;0.60;;;8.70;34.00;;;;;;6033604;23;20411;-62
2023/01/15 10:10:32;;;;;;;3.60;0.53;;;8.70;34.70;;;;;;6035472;23;20412;-70
2023/01/15 10:13:06;;;;;;;4.33;0.60;;;8.60;34.20;;;;;;6038829;23;20951;-68
2023/01/15 10:15:39;;;;;;;8.80;1.40;;;8.70;34.50;;;;;;6056836;23;21142;-67
2023/01/15 10:18:14;;;;;;;4.03;1.33;;;8.60;34.80;;;;;;6057802;23;20442;-65
2023/01/15 10:21:04;;;;;;;3.40;0.70;;;8.60;35.00;;;;;;6060568;23;20403;-67
2023/01/15 10:23:36;;;;;;;5.80;1.90;;;8.60;35.20;;;;;;6037349;23;20786;-67
2023/01/15 10:26:15;;;;;;;11.30;6.00;;;8.70;35.40;;;;;;6043181;23;20422;-68
2023/01/15 10:28:52;;;;;;;27.13;14.20;;;8.70;35.30;;;;;;6032526;23;20410;-67
2023/01/15 10:31:21;;;;;;;6.03;3.30;;;8.70;34.60;;;;;;6032871;23;20451;-67
2023/01/15 10:34:05;;;;;;;4.00;1.40;;;8.80;34.50;;;;;;6031591;23;20455;-68
2023/01/15 10:36:37;;;;;;;6.50;3.47;;;8.70;34.70;;;;;;6041175;23;20435;-63
2023/01/15 10:39:15;;;;;;;6.60;3.87;;;8.80;34.00;;;;;;6034054;23;20420;-63
2023/01/15 10:42:00;;;;;;;5.30;2.60;;;8.80;33.90;;;;;;6033629;23;20408;-64
2023/01/15 10:44:37;;;;;;;4.00;1.17;;;8.80;33.60;;;;;;6032509;23;20436;-62
2023/01/15 10:47:11;;;;;;;4.30;1.40;;;8.80;33.10;;;;;;6030366;23;20423;-61
2023/01/15 10:49:41;;;;;;;3.43;0.87;;;8.90;33.10;;;;;;6033177;23;20411;-73
2023/01/15 10:52:19;;;;;;;3.70;1.07;;;8.90;33.10;;;;;;6032868;23;20447;-62
2023/01/15 10:54:48;;;;;;;4.80;2.77;;;8.90;33.20;;;;;;6030512;23;20400;-64
2023/01/15 10:57:21;;;;;;;4.10;1.70;;;9.00;33.20;;;;;;6034758;23;20424;-62
2023/01/15 10:59:53;;;;;;;5.10;2.10;;;9.00;32.70;;;;;;6034190;23;20412;-61
2023/01/15 11:02:29;;;;;;;3.67;0.90;;;9.00;32.60;;;;;;6031604;23;20992;-61
2023/01/15 11:04:58;;;;;;;4.70;1.63;;;9.00;32.50;;;;;;6032568;23;20432;-62
2023/01/15 11:07:31;;;;;;;4.80;1.40;;;9.10;32.70;;;;;;6033622;23;20420;-70
2023/01/15 11:10:02;;;;;;;9.03;3.10;;;9.10;32.30;;;;;;6035788;23;20411;-63
2023/01/15 11:20:46;;;;;;;4.87;1.67;;;9.10;30.80;;;;;;6024282;23;20715;-64
2023/01/15 11:23:15;;;;;;;4.60;2.10;;;9.10;30.60;;;;;;6029497;23;20794;-63
2023/01/15 11:25:49;;;;;;;5.83;3.20;;;9.00;30.90;;;;;;6031509;23;20431;-63
2023/01/15 11:28:16;;;;;;;5.60;2.60;;;9.00;31.30;;;;;;6033130;23;20408;-62
2023/01/15 11:30:44;;;;;;;6.23;3.00;;;9.00;31.00;;;;;;6031611;23;20438;-62
2023/01/15 11:33:22;;;;;;;6.00;3.63;;;9.00;30.90;;;;;;6033193;23;20436;-62
2023/01/15 11:35:57;;;;;;;5.30;1.87;;;9.00;31.20;;;;;;6034472;23;20408;-63
2023/01/15 11:38:25;;;;;;;5.13;1.67;;;8.90;31.10;;;;;;6034049;23;20467;-62
2023/01/15 11:40:53;;;;;;;6.50;4.17;;;8.90;31.00;;;;;;6033509;23;20426;-62
2023/01/15 11:51:57;;;;;;;5.10;2.47;;;8.80;31.00;;;;;;6028922;23;20424;-61
2023/01/15 11:54:26;;;;;;;3.40;0.80;;;8.70;31.30;;;;;;6028948;23;20512;-62
2023/01/15 11:56:55;;;;;;;5.20;2.60;;;8.60;31.90;;;;;;6033158;23;20420;-61
2023/01/15 11:59:22;;;;;;;4.73;1.87;;;8.60;32.40;;;;;;6032857;23;20470;-60
2023/01/15 12:01:57;;;;;;;3.63;0.77;;;8.60;32.70;;;;;;6031765;23;20440;-60
2023/01/15 12:04:36;;;;;;;3.20;0.50;;;8.50;32.40;;;;;;6033117;23;20544;-64
2023/01/15 12:07:11;;;;;;;4.90;2.27;;;8.50;32.50;;;;;;6033018;23;20460;-62
2023/01/15 12:10:02;;;;;;;3.73;0.93;;;8.50;31.00;;;;;;6029496;23;20487;-62
2023/01/15 12:12:39;;;;;;;5.03;1.33;;;8.40;30.60;;;;;;6027662;23;20455;-61
2023/01/15 12:15:22;;;;;;;3.60;0.83;;;8.30;30.00;;;;;;6040237;23;20400;-62
2023/01/15 12:18:03;;;;;;;4.37;0.90;;;8.20;30.50;;;;;;6033945;23;20895;-61
2023/01/15 12:20:48;;;;;;;3.73;0.70;;;8.20;30.00;;;;;;6035243;23;20407;-62
2023/01/15 12:23:43;;;;;;;3.73;0.80;;;8.10;30.20;;;;;;6035048;23;20436;-64
2023/01/15 12:26:20;;;;;;;3.47;0.70;;;8.10;29.80;;;;;;6034331;23;20411;-64
2023/01/15 12:28:57;;;;;;;4.37;1.00;;;8.10;30.10;;;;;;6035651;23;20408;-62
2023/01/15 12:31:29;;;;;;;3.20;0.50;;;8.00;30.50;;;;;;6034063;23;20446;-62
2023/01/15 12:34:01;;;;;;;3.50;0.60;;;8.00;29.40;;;;;;6034936;23;20436;-62
2023/01/15 12:36:33;;;;;;;5.23;1.00;;;8.00;29.80;;;;;;6030192;23;20443;-62
2023/01/15 12:39:03;;;;;;;3.30;0.80;;;7.90;30.00;;;;;;6059807;23;20944;-62
2023/01/15 12:47:00;;;;;;;4.17;0.80;;;7.80;30.70;;;;;;6049093;23;20435;-62
2023/01/15 12:49:34;;;;;;;3.20;0.50;;;7.80;30.50;;;;;;6030097;23;20424;-62
2023/01/15 12:52:08;;;;;;;3.97;0.70;;;7.80;30.70;;;;;;6037495;23;20404;-63
2023/01/15 12:54:43;;;;;;;3.70;0.70;;;7.80;30.50;;;;;;6036151;23;20411;-63
2023/01/15 12:57:16;;;;;;;3.30;0.50;;;7.70;30.00;;;;;;6036290;23;20444;-63
2023/01/15 12:59:51;;;;;;;7.97;4.60;;;7.70;30.10;;;;;;6031163;23;20901;-62
2023/01/15 13:02:23;;;;;;;8.80;6.03;;;7.70;30.00;;;;;;6033676;23;20853;-62
2023/01/15 13:04:53;;;;;;;9.13;4.60;;;7.60;30.10;;;;;;6031893;23;20443;-61
2023/01/15 13:07:29;;;;;;;7.33;2.80;;;7.70;30.50;;;;;;6030699;23;20454;-61
2023/01/15 13:10:06;;;;;;;6.40;3.03;;;7.60;30.40;;;;;;6033191;23;20404;-62
2023/01/15 13:12:34;;;;;;;4.07;1.50;;;7.60;30.00;;;;;;6031205;23;21134;-62
2023/01/15 13:15:02;;;;;;;4.57;1.20;;;7.60;30.20;;;;;;6034784;23;20416;-62
2023/01/15 13:17:36;;;;;;;4.90;1.40;;;7.60;30.30;;;;;;6033574;23;20524;-62
2023/01/15 13:20:35;;;;;;;4.23;1.60;;;7.60;30.20;;;;;;6033552;23;20430;-61
2023/01/15 13:23:09;;;;;;;5.30;1.03;;;7.50;30.30;;;;;;6033914;23;20404;-60
2023/01/15 13:25:54;;;;;;;4.37;0.87;;;7.50;30.40;;;;;;6034374;23;20443;-61
2023/01/15 13:28:51;;;;;;;3.30;0.60;;;7.50;30.40;;;;;;6033873;23;21151;-62
2023/01/15 13:31:47;;;;;;;3.70;0.90;;;7.40;30.90;;;;;;6029557;23;20455;-62
2023/01/15 13:34:22;;;;;;;3.77;0.70;;;7.40;30.80;;;;;;6034878;23;20401;-62
2023/01/15 13:36:50;;;;;;;3.30;0.70;;;7.30;30.90;;;;;;6034149;23;20527;-62
2023/01/15 13:39:22;;;;;;;6.20;1.80;;;7.30;30.90;;;;;;6034064;23;20420;-62
2023/01/15 13:44:41;;;;;;;3.20;0.60;;;7.30;31.10;;;;;;6043162;23;20578;-62
2023/01/15 13:49:52;;;;;;;3.70;0.70;;;7.20;31.10;;;;;;6053807;23;20757;-63
2023/01/15 13:52:24;;;;;;;4.00;1.10;;;7.20;30.90;;;;;;6061748;23;20419;-63
2023/01/15 13:54:52;;;;;;;3.70;0.80;;;7.20;31.20;;;;;;6060059;23;20502;-63
2023/01/15 13:57:31;;;;;;;6.73;1.00;;;7.20;31.20;;;;;;6060256;23;20424;-64
2023/01/15 13:59:58;;;;;;;3.90;1.23;;;7.20;30.90;;;;;;6033677;23;20443;-64